createdAt,value
2022-10-23T00:01:18.951Z,74.75
2022-10-23T00:03:46.779Z,74.61
2022-10-23T00:06:14.400Z,74.92
2022-10-23T00:08:42.028Z,77.16
2022-10-23T00:11:11.605Z,79.29
2022-10-23T00:13:38.925Z,80.30
2022-10-23T00:16:06.496Z,82.39
2022-10-23T00:18:33.837Z,81.07
2022-10-23T00:21:01.295Z,79.66
2022-10-23T00:23:28.189Z,79.77
2022-10-23T00:25:55.084Z,78.27
2022-10-23T00:28:21.990Z,75.62
2022-10-23T00:30:48.946Z,75.93
2022-10-23T00:33:15.912Z,75.95
2022-10-23T00:35:43.254Z,78.02
2022-10-23T00:38:11.000Z,76.40
2022-10-23T00:40:39.679Z,78.09
2022-10-23T00:43:07.487Z,75.37
2022-10-23T00:45:34.626Z,77.60
2022-10-23T00:48:02.354Z,77.20
2022-10-23T00:50:32.141Z,75.06
2022-10-23T00:53:01.557Z,74.21
2022-10-23T00:55:29.217Z,74.38
2022-10-23T00:57:56.395Z,73.80
2022-10-23T01:00:26.214Z,74.12
2022-10-23T01:02:53.704Z,75.00
2022-10-23T01:05:24.662Z,73.53
2022-10-23T01:08:00.041Z,71.94
2022-10-23T01:10:40.752Z,72.80
2022-10-23T01:13:34.557Z,74.04
2022-10-23T01:16:21.606Z,72.78
2022-10-23T01:18:56.474Z,75.17
2022-10-23T01:21:58.758Z,74.64
2022-10-23T01:25:03.311Z,77.39
2022-10-23T01:27:43.187Z,78.72
2022-10-23T01:30:12.851Z,81.04
2022-10-23T01:32:51.660Z,78.35
2022-10-23T01:35:33.051Z,79.83
2022-10-23T01:38:18.056Z,81.96
2022-10-23T01:40:49.634Z,82.79
2022-10-23T01:43:29.392Z,82.38
2022-10-23T01:46:03.273Z,83.18
2022-10-23T01:48:30.551Z,82.54
2022-10-23T01:51:00.147Z,81.36
2022-10-23T01:53:30.856Z,77.81
2022-10-23T01:55:59.776Z,75.85
2022-10-23T01:58:27.229Z,73.58
2022-10-23T02:00:57.399Z,75.86
2022-10-23T02:03:24.945Z,75.22
2022-10-23T02:05:51.880Z,75.37
2022-10-23T02:08:18.834Z,74.76
2022-10-23T02:11:09.404Z,73.67
2022-10-23T02:14:03.742Z,69.59
2022-10-23T02:16:37.608Z,69.69
2022-10-23T02:19:31.776Z,73.69
2022-10-23T02:22:08.600Z,72.77
2022-10-23T02:24:58.913Z,73.29
2022-10-23T02:27:42.355Z,75.02
2022-10-23T02:30:11.734Z,75.50
2022-10-23T02:32:45.477Z,72.46
2022-10-23T02:35:12.789Z,67.86
2022-10-23T02:37:39.952Z,69.29
2022-10-23T02:40:09.757Z,69.84
2022-10-23T02:42:43.903Z,69.45
2022-10-23T02:45:28.705Z,69.71
2022-10-23T02:48:33.881Z,64.36
2022-10-23T02:51:10.189Z,62.77
2022-10-23T02:53:49.554Z,64.40
2022-10-23T02:56:21.099Z,66.42
2022-10-23T02:58:56.814Z,67.87
2022-10-23T03:01:29.677Z,66.62
2022-10-23T03:04:01.405Z,62.64
2022-10-23T03:06:28.252Z,62.67
2022-10-23T03:08:59.900Z,64.43
2022-10-23T03:11:26.803Z,64.07
2022-10-23T03:13:53.753Z,64.37
2022-10-23T03:16:20.591Z,65.16
2022-10-23T03:18:47.503Z,65.52
2022-10-23T03:21:14.340Z,63.81
2022-10-23T03:23:41.199Z,65.19
2022-10-23T03:26:09.126Z,60.83
2022-10-23T03:28:36.068Z,60.27
2022-10-23T03:31:03.691Z,60.61
2022-10-23T03:33:31.184Z,61.26
2022-10-23T03:35:58.048Z,58.57
2022-10-23T03:38:24.902Z,59.00
2022-10-23T03:40:51.906Z,60.04
2022-10-23T03:43:18.795Z,61.23
2022-10-23T03:45:45.640Z,60.17
2022-10-23T03:48:12.699Z,59.75
2022-10-23T03:50:39.533Z,62.51
2022-10-23T03:53:06.380Z,64.06
2022-10-23T03:55:33.230Z,63.17
2022-10-23T03:58:00.146Z,62.79
2022-10-23T04:00:26.980Z,65.69
2022-10-23T04:02:53.960Z,65.98
2022-10-23T04:05:20.818Z,64.91
2022-10-23T04:07:47.665Z,62.14
2022-10-23T04:10:14.518Z,60.11
2022-10-23T04:12:41.571Z,61.47
2022-10-23T04:15:09.104Z,61.46
2022-10-23T04:17:35.954Z,65.15
2022-10-23T04:20:02.791Z,66.47
2022-10-23T04:22:29.618Z,69.42
2022-10-23T04:24:56.309Z,73.08
2022-10-23T04:27:23.254Z,76.69
2022-10-23T04:29:50.574Z,77.52
2022-10-23T04:32:17.866Z,80.62
2022-10-23T04:34:44.546Z,82.85
2022-10-23T04:37:11.375Z,80.59
2022-10-23T04:39:38.037Z,80.97
2022-10-23T04:42:04.917Z,80.88
2022-10-23T04:44:31.788Z,79.87
2022-10-23T04:46:58.645Z,79.26
2022-10-23T04:49:25.507Z,78.04
2022-10-23T04:51:52.396Z,77.91
2022-10-23T04:54:19.256Z,77.28
2022-10-23T04:56:46.188Z,75.99
2022-10-23T04:59:13.176Z,76.24
2022-10-23T05:01:40.137Z,77.09
2022-10-23T05:04:07.085Z,76.88
2022-10-23T05:06:33.930Z,74.57
2022-10-23T05:09:00.785Z,73.67
2022-10-23T05:11:27.648Z,76.16
2022-10-23T05:13:54.498Z,76.73
2022-10-23T05:17:02.928Z,77.78
2022-10-23T05:19:33.921Z,76.76
2022-10-23T05:22:00.985Z,78.09
2022-10-23T05:24:27.810Z,77.09
2022-10-23T05:26:54.730Z,70.64
2022-10-23T05:29:21.582Z,72.71
2022-10-23T05:31:55.006Z,70.24
2022-10-23T05:34:23.093Z,67.62
2022-10-23T05:36:50.029Z,66.20
2022-10-23T05:39:17.150Z,65.35
2022-10-23T05:41:44.037Z,64.79
2022-10-23T05:44:10.952Z,67.60
2022-10-23T05:46:42.274Z,65.23
2022-10-23T05:49:09.145Z,65.57
2022-10-23T05:51:40.241Z,64.33
2022-10-23T05:54:10.377Z,63.33
2022-10-23T05:56:41.714Z,62.86
2022-10-23T05:59:09.041Z,64.65
2022-10-23T06:01:37.056Z,66.94
2022-10-23T06:04:04.902Z,70.34
2022-10-23T06:06:31.754Z,70.57
2022-10-23T06:08:58.608Z,66.99
2022-10-23T06:11:25.522Z,67.67
2022-10-23T06:13:52.479Z,62.93
2022-10-23T06:16:22.853Z,61.78
2022-10-23T06:18:49.688Z,58.76
2022-10-23T06:21:16.602Z,56.20
2022-10-23T06:23:44.457Z,55.61
2022-10-23T06:26:12.934Z,53.41
2022-10-23T06:28:40.071Z,55.26
2022-10-23T06:31:08.094Z,53.10
2022-10-23T06:33:34.960Z,51.56
2022-10-23T06:36:02.706Z,51.23
2022-10-23T06:38:29.716Z,50.39
2022-10-23T06:40:57.048Z,50.11
2022-10-23T06:43:23.957Z,50.47
2022-10-23T06:45:50.847Z,50.06
2022-10-23T06:48:17.694Z,49.21
2022-10-23T06:50:44.567Z,47.40
2022-10-23T06:53:12.587Z,46.51
2022-10-23T06:55:42.621Z,44.91
2022-10-23T06:58:11.011Z,44.30
2022-10-23T07:00:39.020Z,42.75
2022-10-23T07:03:06.385Z,44.41
2022-10-23T07:05:33.306Z,45.21
2022-10-23T07:08:00.159Z,42.64
2022-10-23T07:10:27.408Z,41.17
2022-10-23T07:12:54.534Z,39.32
2022-10-23T07:15:21.375Z,39.11
2022-10-23T07:17:48.223Z,39.27
2022-10-23T07:20:15.142Z,38.56
2022-10-23T07:22:42.228Z,39.81
2022-10-23T07:25:09.524Z,40.44
2022-10-23T07:27:38.111Z,43.04
2022-10-23T07:30:05.402Z,39.57
2022-10-23T07:32:32.250Z,39.91
2022-10-23T07:34:59.326Z,38.24
2022-10-23T07:37:26.210Z,37.98
2022-10-23T07:39:53.096Z,36.84
2022-10-23T07:42:19.963Z,37.89
2022-10-23T07:44:46.811Z,37.13
2022-10-23T07:47:13.684Z,35.50
2022-10-23T07:49:40.556Z,34.44
2022-10-23T07:52:07.484Z,33.68
2022-10-23T07:54:34.437Z,33.47
2022-10-23T07:57:01.331Z,32.30
2022-10-23T07:59:28.200Z,32.17
2022-10-23T08:01:58.068Z,32.94
2022-10-23T08:04:25.337Z,33.21
2022-10-23T08:06:52.519Z,35.14
2022-10-23T08:09:19.396Z,37.52
2022-10-23T08:11:46.245Z,39.71
2022-10-23T08:14:13.139Z,44.23
2022-10-23T08:16:40.334Z,41.63
2022-10-23T08:19:08.003Z,41.00
2022-10-23T08:21:34.876Z,42.56
2022-10-23T08:24:01.750Z,42.51
2022-10-23T08:26:31.873Z,43.81
2022-10-23T08:28:59.478Z,43.05
2022-10-23T08:31:26.657Z,42.00
2022-10-23T08:33:53.550Z,43.71
2022-10-23T08:36:22.904Z,43.90
2022-10-23T08:38:50.398Z,42.48
2022-10-23T08:41:44.416Z,46.21
2022-10-23T08:44:24.659Z,43.49
2022-10-23T08:47:06.041Z,42.89
2022-10-23T08:49:35.904Z,44.32
2022-10-23T08:52:14.036Z,45.59
2022-10-23T08:55:03.605Z,45.27
2022-10-23T08:57:40.070Z,45.31
2022-10-23T09:00:15.090Z,44.03
2022-10-23T09:02:50.175Z,45.94
2022-10-23T09:05:42.618Z,45.14
2022-10-23T09:08:28.109Z,46.25
2022-10-23T09:11:27.279Z,45.41
2022-10-23T09:14:25.292Z,47.16
2022-10-23T09:16:52.482Z,48.29
2022-10-23T09:19:27.467Z,47.87
2022-10-23T09:21:55.107Z,48.35
2022-10-23T09:24:23.900Z,48.62
2022-10-23T09:26:52.559Z,46.75
2022-10-23T09:29:24.247Z,45.81
2022-10-23T09:31:56.339Z,47.25
2022-10-23T09:34:26.564Z,48.14
2022-10-23T09:37:01.834Z,49.08
2022-10-23T09:39:33.673Z,49.75
2022-10-23T09:42:02.620Z,51.04
2022-10-23T09:44:32.101Z,51.20
2022-10-23T09:47:11.383Z,51.67
2022-10-23T09:49:40.822Z,52.26
2022-10-23T09:52:10.690Z,53.35
2022-10-23T09:54:39.444Z,53.61
2022-10-23T09:57:25.114Z,56.00
2022-10-23T09:59:54.263Z,55.36
2022-10-23T10:02:28.328Z,55.78
2022-10-23T10:04:55.361Z,55.66
2022-10-23T10:07:25.654Z,55.87
2022-10-23T10:09:56.978Z,54.08
2022-10-23T10:12:23.751Z,54.68
2022-10-23T10:15:07.329Z,56.58
2022-10-23T10:17:51.181Z,58.73
2022-10-23T10:20:27.191Z,58.39
2022-10-23T10:23:02.617Z,58.68
2022-10-23T10:25:43.246Z,59.54
2022-10-23T10:28:19.063Z,59.52
2022-10-23T10:31:16.530Z,58.27
2022-10-23T10:34:22.292Z,57.86
2022-10-23T10:36:58.104Z,59.38
2022-10-23T10:39:39.845Z,56.90
2022-10-23T10:42:42.948Z,56.69
2022-10-23T10:45:34.646Z,55.73
2022-10-23T10:48:26.567Z,57.30
2022-10-23T10:51:01.126Z,60.75
2022-10-23T10:53:49.768Z,59.27
2022-10-23T10:56:19.244Z,63.10
2022-10-23T10:58:51.170Z,65.24
2022-10-23T11:01:31.477Z,66.96
2022-10-23T11:04:39.823Z,67.79
2022-10-23T11:07:20.957Z,69.23
2022-10-23T11:09:48.099Z,70.79
2022-10-23T11:12:18.308Z,70.46
2022-10-23T11:14:45.453Z,70.55
2022-10-23T11:17:39.210Z,72.61
2022-10-23T11:20:32.303Z,75.41
2022-10-23T11:23:32.731Z,72.19
2022-10-23T11:25:59.519Z,70.17
2022-10-23T11:28:59.358Z,68.38
2022-10-23T11:31:44.172Z,70.03
2022-10-23T11:34:34.340Z,65.75
2022-10-23T11:37:01.831Z,65.87
2022-10-23T11:39:30.622Z,66.17
2022-10-23T11:41:59.882Z,64.43
2022-10-23T11:44:39.949Z,64.40
2022-10-23T11:47:39.613Z,68.28
2022-10-23T11:50:07.313Z,68.23
2022-10-23T11:52:42.054Z,69.58
2022-10-23T11:55:20.777Z,67.84
2022-10-23T11:58:05.422Z,66.51
2022-10-23T12:00:34.582Z,69.30
2022-10-23T12:03:02.154Z,69.29
2022-10-23T12:05:38.585Z,66.65
2022-10-23T12:08:07.965Z,67.03
2022-10-23T12:10:36.742Z,69.10
2022-10-23T12:13:06.403Z,67.93
2022-10-23T12:15:37.098Z,69.15
2022-10-23T12:18:15.798Z,67.37
2022-10-23T12:20:45.883Z,69.94
2022-10-23T12:23:33.909Z,67.23
2022-10-23T12:26:07.053Z,69.22
2022-10-23T12:28:39.846Z,69.47
2022-10-23T12:31:34.016Z,66.79
2022-10-23T12:34:19.065Z,65.79
2022-10-23T12:37:13.549Z,69.09
2022-10-23T12:39:40.938Z,68.56
2022-10-23T12:42:20.181Z,69.06
2022-10-23T12:45:01.101Z,69.28
2022-10-23T12:47:29.372Z,65.63
2022-10-23T12:49:56.345Z,64.38
2022-10-23T12:52:25.445Z,66.91
2022-10-23T12:54:52.360Z,65.53
2022-10-23T12:57:24.154Z,65.44
2022-10-23T12:59:52.022Z,65.25
2022-10-23T13:02:24.287Z,63.98
2022-10-23T13:04:53.231Z,67.14
2022-10-23T13:07:22.941Z,65.58
2022-10-23T13:09:49.855Z,65.10
2022-10-23T13:12:24.541Z,66.88
2022-10-23T13:15:17.495Z,68.68
2022-10-23T13:17:59.194Z,69.31
2022-10-23T13:20:28.091Z,70.51
2022-10-23T13:23:33.528Z,70.42
2022-10-23T13:26:02.390Z,70.30
2022-10-23T13:28:50.218Z,67.62
2022-10-23T13:31:17.001Z,67.64
2022-10-23T13:33:46.246Z,69.71
2022-10-23T13:36:16.733Z,67.95
2022-10-23T13:38:59.000Z,63.14
2022-10-23T13:41:27.591Z,63.13
2022-10-23T13:43:54.823Z,63.61
2022-10-23T13:46:24.614Z,63.85
2022-10-23T13:48:51.783Z,63.78
2022-10-23T13:51:25.927Z,67.55
2022-10-23T13:53:53.204Z,64.83
2022-10-23T13:56:21.779Z,65.17
2022-10-23T13:58:49.314Z,65.85
2022-10-23T14:01:25.125Z,65.81
2022-10-23T14:03:52.954Z,70.34
2022-10-23T14:06:19.957Z,71.02
2022-10-23T14:08:46.878Z,70.95
2022-10-23T14:13:47.480Z,63.24
2022-10-23T14:16:16.043Z,68.98
2022-10-23T14:18:43.273Z,64.06
2022-10-23T14:21:13.014Z,64.28
2022-10-23T14:23:39.902Z,61.77
2022-10-23T14:26:08.991Z,67.46
2022-10-23T14:28:35.883Z,69.68
2022-10-23T14:31:07.926Z,68.65
2022-10-23T14:33:34.889Z,72.76
2022-10-23T14:36:01.916Z,73.17
2022-10-23T14:38:29.130Z,74.77
2022-10-23T14:40:55.997Z,70.82
2022-10-23T14:43:23.942Z,75.41
2022-10-23T14:45:50.882Z,75.61
2022-10-23T14:48:17.871Z,69.39
2022-10-23T14:50:46.791Z,68.93
2022-10-23T14:53:14.199Z,66.30
2022-10-23T14:55:41.123Z,67.21
2022-10-23T14:58:08.074Z,65.20
2022-10-23T15:00:34.935Z,63.13
2022-10-23T15:03:01.909Z,62.45
2022-10-23T15:05:28.776Z,62.85
2022-10-23T15:07:56.624Z,61.71
2022-10-23T15:10:23.592Z,62.38
2022-10-23T15:12:50.435Z,61.14
2022-10-23T15:15:17.336Z,63.60
2022-10-23T15:17:44.232Z,64.08
2022-10-23T15:20:11.276Z,59.71
2022-10-23T15:22:38.130Z,58.38
2022-10-23T15:25:05.473Z,61.89
2022-10-23T15:27:32.341Z,63.88
2022-10-23T15:29:59.265Z,64.21
2022-10-23T15:32:26.173Z,65.83
2022-10-23T15:34:53.935Z,64.62
2022-10-23T15:37:20.836Z,66.60
2022-10-23T15:39:47.744Z,68.20
2022-10-23T15:42:14.750Z,67.71
2022-10-23T15:44:41.805Z,69.25
2022-10-23T15:47:08.736Z,69.62
2022-10-23T15:49:35.878Z,67.68
2022-10-23T15:52:24.309Z,64.00
2022-10-23T15:54:51.169Z,66.63
2022-10-23T15:57:18.052Z,65.71
2022-10-23T15:59:44.891Z,67.54
2022-10-23T16:02:12.202Z,67.93
2022-10-23T16:04:39.165Z,67.33
2022-10-23T16:07:07.255Z,69.27
2022-10-23T16:09:34.120Z,70.66
2022-10-23T16:12:01.044Z,66.78
2022-10-23T16:14:27.935Z,68.28
2022-10-23T16:16:54.788Z,70.69
2022-10-23T16:19:21.778Z,68.81
2022-10-23T16:21:48.703Z,66.47
2022-10-23T16:24:15.573Z,63.55
2022-10-23T16:26:42.591Z,65.84
2022-10-23T16:29:11.106Z,66.76
2022-10-23T16:31:38.145Z,60.47
2022-10-23T16:34:05.618Z,68.88
2022-10-23T16:36:33.101Z,68.29
2022-10-23T16:39:03.260Z,67.20
2022-10-23T16:41:30.103Z,63.64
2022-10-23T16:43:57.125Z,64.69
2022-10-23T16:46:24.141Z,65.17
2022-10-23T16:48:52.097Z,62.73
2022-10-23T16:51:21.266Z,64.11
2022-10-23T16:53:48.787Z,63.78
2022-10-23T16:56:18.523Z,64.45
2022-10-23T16:58:45.546Z,63.80
2022-10-23T17:01:14.279Z,63.72
2022-10-23T17:03:43.563Z,60.71
2022-10-23T17:06:12.703Z,60.15
2022-10-23T17:08:40.547Z,61.74
2022-10-23T17:11:11.089Z,68.28
2022-10-23T17:13:40.532Z,62.63
2022-10-23T17:16:13.177Z,62.00
2022-10-23T17:18:43.715Z,62.37
2022-10-23T17:21:12.477Z,60.87
2022-10-23T17:23:39.461Z,59.51
2022-10-23T17:26:12.087Z,59.49
2022-10-23T17:28:41.830Z,61.38
2022-10-23T17:31:19.829Z,60.90
2022-10-23T17:33:47.996Z,59.77
2022-10-23T17:36:16.203Z,58.77
2022-10-23T17:38:46.340Z,63.18
2022-10-23T17:41:15.832Z,61.31
2022-10-23T17:43:43.239Z,59.46
2022-10-23T17:46:12.065Z,59.81
2022-10-23T17:48:39.823Z,60.83
2022-10-23T17:51:12.371Z,58.84
2022-10-23T17:53:41.374Z,60.21
2022-10-23T17:56:11.282Z,59.74
2022-10-23T17:58:38.280Z,59.57
2022-10-23T18:01:10.145Z,59.38
2022-10-23T18:03:38.176Z,62.49
2022-10-23T18:06:12.833Z,66.07
2022-10-23T18:08:42.665Z,62.07
2022-10-23T18:13:47.189Z,62.13
2022-10-23T18:16:14.378Z,56.72
2022-10-23T18:18:42.743Z,60.19
2022-10-23T18:21:10.537Z,59.00
2022-10-23T18:23:37.593Z,60.59
2022-10-23T18:26:05.432Z,58.66
2022-10-23T18:28:32.832Z,59.80
2022-10-23T18:30:59.682Z,64.98
2022-10-23T18:33:26.876Z,68.59
2022-10-23T18:35:53.814Z,64.08
2022-10-23T18:38:20.677Z,62.62
2022-10-23T18:40:53.962Z,62.42
2022-10-23T18:43:41.983Z,62.08
2022-10-23T18:46:08.052Z,61.87
2022-10-23T18:48:35.723Z,63.17
2022-10-23T18:51:02.623Z,67.44
2022-10-23T18:53:29.594Z,65.65
2022-10-23T18:55:56.499Z,64.38
2022-10-23T18:58:23.364Z,64.04
2022-10-23T19:00:50.288Z,61.59
2022-10-23T19:09:28.359Z,64.62
2022-10-23T19:14:41.728Z,64.23
2022-10-23T19:17:18.372Z,63.92
2022-10-23T19:19:48.546Z,65.16
2022-10-23T19:22:17.575Z,66.35
2022-10-23T19:24:48.476Z,64.75
2022-10-23T19:27:15.569Z,65.91
2022-10-23T19:29:45.246Z,67.06
2022-10-23T19:32:12.341Z,69.87
2022-10-23T19:34:39.300Z,71.19
2022-10-23T19:37:06.226Z,68.55
2022-10-23T19:39:33.129Z,66.42
2022-10-23T19:54:31.752Z,62.57
2022-10-23T19:56:58.843Z,60.03
2022-10-23T19:59:25.698Z,60.41
2022-10-23T20:01:52.920Z,62.42
2022-10-23T20:04:19.935Z,63.06
2022-10-23T20:06:47.690Z,66.26
2022-10-23T20:09:14.566Z,65.70
2022-10-23T20:11:41.590Z,65.12
2022-10-23T20:14:08.443Z,66.90
2022-10-23T20:16:37.390Z,66.86
2022-10-23T20:19:07.156Z,69.69
2022-10-23T20:21:41.886Z,71.02
2022-10-23T20:24:10.469Z,68.84
2022-10-23T20:26:40.537Z,67.16
2022-10-23T20:29:07.447Z,63.84
2022-10-23T20:31:36.566Z,63.66
2022-10-23T20:34:03.580Z,69.72
2022-10-23T20:36:35.638Z,64.49
2022-10-23T20:39:05.571Z,63.73
2022-10-23T20:41:33.877Z,64.12
2022-10-23T20:44:25.692Z,64.34
2022-10-23T20:46:53.196Z,63.65
2022-10-23T20:49:20.450Z,63.11
2022-10-23T20:51:55.339Z,61.70
2022-10-23T20:54:27.012Z,66.74
2022-10-23T20:56:53.895Z,67.99
2022-10-23T20:59:20.936Z,64.97
2022-10-23T21:01:50.002Z,68.65
2022-10-23T21:04:22.324Z,66.79
2022-10-23T21:07:10.868Z,65.90
2022-10-23T21:09:39.241Z,65.00
2022-10-23T21:14:42.238Z,62.26
2022-10-23T21:17:11.072Z,60.94
2022-10-23T21:19:39.365Z,61.60
2022-10-23T21:22:06.239Z,62.97
2022-10-23T21:24:33.287Z,65.83
2022-10-23T21:27:00.225Z,66.53
2022-10-23T21:29:27.111Z,65.47
2022-10-23T21:31:58.233Z,67.17
2022-10-23T21:34:26.188Z,67.13
2022-10-23T21:37:11.957Z,67.91
2022-10-23T21:39:39.179Z,68.17
2022-10-23T21:42:06.099Z,77.72
2022-10-23T21:44:32.974Z,84.73
2022-10-23T21:46:59.900Z,84.47
2022-10-23T21:49:26.784Z,86.20
2022-10-23T21:51:55.297Z,87.86
2022-10-23T21:54:22.637Z,89.66
2022-10-23T21:56:51.245Z,89.69
2022-10-23T21:59:20.492Z,90.08
2022-10-23T22:01:48.697Z,82.86
2022-10-23T22:04:19.519Z,80.49
2022-10-23T22:06:48.081Z,78.75
2022-10-23T22:09:19.087Z,75.90
2022-10-23T22:11:46.110Z,74.43
2022-10-23T22:14:32.148Z,72.33
2022-10-23T22:16:59.141Z,73.14
2022-10-23T22:19:26.237Z,77.77
2022-10-23T22:21:53.127Z,79.65
2022-10-23T22:24:20.382Z,79.35
2022-10-23T22:26:50.008Z,72.63
2022-10-23T22:29:19.491Z,73.33
2022-10-23T22:31:49.669Z,71.54
2022-10-23T22:34:48.318Z,74.31
2022-10-23T22:37:14.849Z,73.82
2022-10-23T22:39:41.833Z,72.54
2022-10-23T22:42:09.070Z,71.88
2022-10-23T22:44:36.115Z,73.06
2022-10-23T22:47:03.367Z,71.29
2022-10-23T22:49:30.233Z,70.42
2022-10-23T22:51:57.132Z,69.65
2022-10-23T22:54:24.047Z,68.74
2022-10-23T22:56:50.954Z,68.48
2022-10-23T22:59:17.872Z,67.82
2022-10-23T23:01:46.651Z,63.61
2022-10-23T23:07:06.813Z,65.59
2022-10-23T23:09:36.833Z,66.27
2022-10-23T23:12:04.042Z,65.60
2022-10-23T23:14:30.903Z,63.85
2022-10-23T23:16:57.840Z,65.22
2022-10-23T23:19:26.724Z,65.23
2022-10-23T23:21:58.032Z,65.51
2022-10-23T23:24:25.573Z,64.68
2022-10-23T23:26:52.649Z,62.06
2022-10-23T23:29:19.833Z,62.44
2022-10-23T23:31:46.810Z,60.44
2022-10-23T23:34:13.711Z,61.98
2022-10-23T23:36:41.400Z,64.29
2022-10-23T23:39:08.260Z,62.64
2022-10-23T23:41:35.127Z,63.76
2022-10-23T23:44:01.991Z,64.41
2022-10-23T23:46:28.960Z,65.32
2022-10-23T23:48:55.892Z,66.76
2022-10-23T23:51:24.187Z,66.89
2022-10-23T23:53:51.633Z,66.04
2022-10-23T23:56:19.587Z,61.12
2022-10-23T23:58:46.486Z,62.55
